East Setauket, New York
Current Conditions -  °F | °C
As of 1:56 PM on Sunday 21 Dec 2014 (Local Time) from KISP Reporting Station
Overcast Overcast  
Wind Chill: 30°   Ceiling: 900
Heat Index: 36°   Visibility: 10mi
Dew Point: 31°   Wind: 8mph
Humidity: 82%   Direction: 330°NNW
Pressure: 30.25"   Gusts: NA
Location:  40.94°N, 73.11°W
Report Text: KISP 211856Z 33007KT 10SM OVC009 02/M01 A3025 RMK AO2 SLP244 T00221006
Loading
Personal Weather Stations






























Interactive Weather Map New forecast layout! Learn more

10-Day Weather Forecast

Advertisements
Track Severe Weather on mobile